Time;durP1;ratioP1;P1;durP2;ratioP2;P2;SDS_P1;SDS_P2;PMS_P1;PMS_P2;Temp;Humidity;BMP_temperature;BMP_pressure;BME280_temperature;BME280_humidity;BME280_pressure;Samples;Min_cycle;Max_cycle;Signal;HPM_P1;HPM_P2
2023/07/20 00:00:53;;;;;;;;;;;;;;;25.06;58.65;100340.34;7395421;19;1310;-40
2023/07/20 00:03:24;;;;;;;;;;;;;;;25.16;58.39;100338.19;7394073;19;1222;-40
2023/07/20 00:05:53;;;;;;;;;;;;;;;25.18;57.89;100341.53;7394341;19;1495;-40
2023/07/20 00:08:21;;;;;;;;;;;;;;;25.26;57.54;100338.78;7394097;19;1186;-40
2023/07/20 00:10:50;;;;;;;;;;;;;;;25.20;57.62;100345.72;7393103;19;1845;-40
2023/07/20 00:13:18;;;;;;;;;;;;;;;25.14;57.52;100345.66;7393537;19;1529;-40
2023/07/20 00:15:50;;;;;;;;;;;;;;;25.09;57.62;100372.41;7394263;19;1491;-40
2023/07/20 00:18:21;;;;;;;;;;;;;;;25.06;57.39;100337.63;7394607;19;1528;-40
2023/07/20 00:20:50;;;;;;;;;;;;;;;25.04;57.25;100350.50;7393026;19;1526;-40
2023/07/20 00:23:22;;;;;;;;;;;;;;;25.17;57.44;100335.31;7392788;19;1498;-40
2023/07/20 00:25:50;;;;;;;;;;;;;;;25.18;57.52;100341.53;7395455;19;1184;-40
2023/07/20 00:28:19;;;;;;;;;;;;;;;25.24;57.35;100335.41;7394043;19;1578;-40
2023/07/20 00:30:49;;;;;;;;;;;;;;;25.17;57.85;100324.47;7394882;19;1861;-40
2023/07/20 00:33:19;;;;;;;;;;;;;;;25.29;57.91;100321.34;7392811;19;1504;-40
2023/07/20 00:35:48;;;;;;;;;;;;;;;25.31;57.75;100359.88;7394059;19;1552;-43
2023/07/20 00:38:16;;;;;;;;;;;;;;;25.28;57.95;100301.53;7394003;19;1488;-40
2023/07/20 00:40:44;;;;;;;;;;;;;;;25.42;57.97;100282.75;7394853;19;1210;-40
2023/07/20 00:43:12;;;;;;;;;;;;;;;25.33;57.87;100280.16;7393651;19;1391;-40
2023/07/20 00:45:41;;;;;;;;;;;;;;;25.37;58.23;100261.69;7393553;19;1364;-41
2023/07/20 00:48:12;;;;;;;;;;;;;;;25.37;58.07;100246.28;7398333;19;1461;-40
2023/07/20 00:50:42;;;;;;;;;;;;;;;25.44;57.87;100253.63;7400586;19;1859;-40
2023/07/20 00:53:10;;;;;;;;;;;;;;;25.42;57.77;100236.75;7400473;19;1360;-40
2023/07/20 00:55:39;;;;;;;;;;;;;;;25.36;58.02;100241.06;7400738;19;1549;-40
2023/07/20 00:58:07;;;;;;;;;;;;;;;25.44;57.89;100249.06;7397713;19;2310;-40
2023/07/20 01:00:35;;;;;;;;;;;;;;;25.35;58.05;100242.94;7400755;19;1471;-40
2023/07/20 01:03:04;;;;;;;;;;;;;;;25.37;57.84;100232.75;7400360;19;1222;-40
2023/07/20 01:05:39;;;;;;;;;;;;;;;25.37;57.94;100227.34;7400331;19;1396;-40
2023/07/20 01:08:10;;;;;;;;;;;;;;;25.46;57.78;100216.38;7399250;19;1256;-40
2023/07/20 01:10:41;;;;;;;;;;;;;;;25.56;57.64;100216.91;7399879;19;1861;-40
2023/07/20 01:13:12;;;;;;;;;;;;;;;25.44;58.37;100199.50;7399765;19;1639;-40
2023/07/20 01:15:40;;;;;;;;;;;;;;;25.53;58.56;100193.78;7400143;19;1399;-40
2023/07/20 01:18:08;;;;;;;;;;;;;;;25.57;58.23;100175.28;7399590;19;1458;-40
2023/07/20 01:20:39;;;;;;;;;;;;;;;25.42;59.42;100178.03;7398033;19;1205;-40
2023/07/20 01:23:35;;;;;;;;;;;;;;;25.40;59.28;100150.31;7400263;19;1388;-40
2023/07/20 01:26:21;;;;;;;;;;;;;;;25.33;59.57;100070.94;7397860;19;2354;-40
2023/07/20 01:29:08;;;;;;;;;;;;;;;25.23;60.46;99975.69;7400271;19;1871;-40
2023/07/20 01:31:40;;;;;;;;;;;;;;;24.93;61.46;99987.50;7399223;19;1854;-40
2023/07/20 01:34:11;;;;;;;;;;;;;;;25.02;61.80;100002.53;7399917;19;1236;-40
2023/07/20 01:36:41;;;;;;;;;;;;;;;25.11;62.59;100003.28;7398942;19;1997;-40
2023/07/20 01:39:10;;;;;;;;;;;;;;;25.10;62.53;99990.75;7398757;19;1504;-40
2023/07/20 01:41:39;;;;;;;;;;;;;;;25.17;62.11;100016.00;7399726;19;1466;-40
2023/07/20 01:44:05;;;;;;;;;;;;;;;24.95;62.43;100074.69;7399515;19;1367;-40
2023/07/20 01:46:33;;;;;;;;;;;;;;;24.99;62.23;100035.41;7400283;19;1230;-40
2023/07/20 01:49:04;;;;;;;;;;;;;;;25.02;61.88;100072.88;7399020;19;1187;-40
2023/07/20 01:51:32;;;;;;;;;;;;;;;25.08;62.03;100060.47;7397020;19;1850;-40
2023/07/20 01:54:00;;;;;;;;;;;;;;;25.08;62.33;100092.09;7398282;19;1964;-40
2023/07/20 01:56:28;;;;;;;;;;;;;;;25.05;62.30;100082.50;7398297;19;1553;-40
2023/07/20 01:58:57;;;;;;;;;;;;;;;25.01;62.88;100114.50;7397460;19;1270;-40
2023/07/20 02:01:28;;;;;;;;;;;;;;;25.13;62.21;100132.94;7398269;19;1191;-41
2023/07/20 02:03:56;;;;;;;;;;;;;;;25.13;62.48;100132.94;7398496;19;1206;-41
2023/07/20 02:06:27;;;;;;;;;;;;;;;24.95;62.66;100117.97;7398391;19;1554;-40
2023/07/20 02:08:56;;;;;;;;;;;;;;;24.92;62.93;100148.09;7397584;19;1302;-40
2023/07/20 02:11:24;;;;;;;;;;;;;;;25.01;63.06;100181.28;7397371;19;1865;-40
2023/07/20 02:13:52;;;;;;;;;;;;;;;25.12;62.92;100169.97;7397338;19;1454;-40
2023/07/20 02:16:20;;;;;;;;;;;;;;;24.97;63.47;100175.44;7398387;19;1474;-40
2023/07/20 02:18:49;;;;;;;;;;;;;;;25.04;63.31;100180.91;7397626;19;1395;-40
2023/07/20 02:21:17;;;;;;;;;;;;;;;25.12;63.08;100174.53;7398626;19;1508;-40
2023/07/20 02:23:48;;;;;;;;;;;;;;;25.11;62.93;100171.00;7397849;19;1970;-40
2023/07/20 02:26:16;;;;;;;;;;;;;;;25.13;62.50;100160.84;7398652;19;1496;-40
2023/07/20 02:28:44;;;;;;;;;;;;;;;25.26;62.28;100160.16;7398448;19;1435;-40
2023/07/20 02:31:13;;;;;;;;;;;;;;;25.21;62.33;100154.47;7397150;19;1863;-40
2023/07/20 02:33:41;;;;;;;;;;;;;;;25.32;61.89;100166.69;7398508;19;1263;-40
2023/07/20 02:36:09;;;;;;;;;;;;;;;25.30;61.96;100161.44;7396371;19;1511;-40
2023/07/20 02:38:37;;;;;;;;;;;;;;;25.20;62.64;100160.91;7398062;19;1219;-40
2023/07/20 02:41:08;;;;;;;;;;;;;;;25.15;62.44;100153.38;7398130;19;1211;-40
2023/07/20 02:43:37;;;;;;;;;;;;;;;25.13;62.55;100170.81;7397826;19;1792;-40
2023/07/20 02:46:05;;;;;;;;;;;;;;;25.00;62.82;100172.31;7396404;19;1368;-40
2023/07/20 02:48:33;;;;;;;;;;;;;;;25.00;63.34;100177.72;7397360;19;1561;-40
2023/07/20 02:51:01;;;;;;;;;;;;;;;25.04;63.11;100186.31;7396450;19;1456;-40
2023/07/20 02:53:30;;;;;;;;;;;;;;;25.14;62.77;100184.13;7396319;19;1301;-40
2023/07/20 02:55:58;;;;;;;;;;;;;;;25.11;62.76;100178.25;7395809;19;1287;-40
2023/07/20 02:58:29;;;;;;;;;;;;;;;25.10;62.87;100172.03;7397130;19;1245;-40
2023/07/20 03:00:57;;;;;;;;;;;;;;;24.92;63.35;100164.31;7396123;19;1231;-40
2023/07/20 03:03:25;;;;;;;;;;;;;;;25.08;62.53;100175.97;7396768;19;1315;-40
2023/07/20 03:05:55;;;;;;;;;;;;;;;25.14;62.43;100191.44;7396180;19;1300;-40
2023/07/20 03:08:24;;;;;;;;;;;;;;;24.93;62.80;100170.56;7396732;19;1458;-40
2023/07/20 03:10:52;;;;;;;;;;;;;;;24.94;62.83;100183.06;7393976;19;1297;-40
2023/07/20 03:13:20;;;;;;;;;;;;;;;25.01;62.70;100179.41;7395204;19;1905;-40
2023/07/20 03:15:51;;;;;;;;;;;;;;;25.07;62.83;100176.97;7395521;19;1471;-40
2023/07/20 03:18:19;;;;;;;;;;;;;;;25.17;62.26;100174.81;7395910;19;1521;-40
2023/07/20 03:20:48;;;;;;;;;;;;;;;24.95;62.95;100174.78;7393966;19;1466;-40
2023/07/20 03:23:17;;;;;;;;;;;;;;;24.94;63.26;100204.72;7396213;19;1571;-40
2023/07/20 03:25:45;;;;;;;;;;;;;;;25.12;62.42;100201.59;7396759;19;1175;-40
2023/07/20 03:28:13;;;;;;;;;;;;;;;25.12;62.22;100205.13;7395759;19;1603;-40
2023/07/20 03:30:41;;;;;;;;;;;;;;;24.86;63.13;100197.53;7396001;19;1498;-40
2023/07/20 03:33:12;;;;;;;;;;;;;;;24.92;63.00;100202.19;7395381;19;1853;-40
2023/07/20 03:35:40;;;;;;;;;;;;;;;24.98;62.81;100195.19;7395449;19;1526;-40
2023/07/20 03:38:09;;;;;;;;;;;;;;;24.97;62.67;100171.88;7395675;19;1606;-40
2023/07/20 03:40:37;;;;;;;;;;;;;;;24.98;62.76;100163.56;7395711;19;1608;-40
2023/07/20 03:43:05;;;;;;;;;;;;;;;25.01;62.56;100176.72;7395554;19;1601;-40
2023/07/20 03:45:33;;;;;;;;;;;;;;;24.91;62.87;100167.22;7394993;19;1348;-40
2023/07/20 03:48:02;;;;;;;;;;;;;;;24.98;62.61;100165.44;6795907;19;10000059;-40
2023/07/20 03:50:33;;;;;;;;;;;;;;;25.07;62.60;100175.13;7382716;19;1521;-40
2023/07/20 03:53:01;;;;;;;;;;;;;;;24.94;62.63;100175.78;7387193;19;1860;-41
2023/07/20 03:55:29;;;;;;;;;;;;;;;24.82;63.21;100166.50;7388043;19;1471;-40
2023/07/20 03:57:58;;;;;;;;;;;;;;;24.90;63.16;100160.97;7387449;19;1472;-40
2023/07/20 04:00:26;;;;;;;;;;;;;;;25.01;62.47;100165.91;7387848;19;1506;-40
2023/07/20 04:02:54;;;;;;;;;;;;;;;25.00;62.49;100172.31;7386378;19;1466;-40
2023/07/20 04:05:23;;;;;;;;;;;;;;;25.01;62.57;100165.91;7386924;19;1383;-40
2023/07/20 04:07:54;;;;;;;;;;;;;;;24.85;63.00;100167.97;7387410;19;1541;-40
2023/07/20 04:10:22;;;;;;;;;;;;;;;24.74;63.31;100170.13;7388232;19;1430;-40
2023/07/20 04:12:50;;;;;;;;;;;;;;;24.68;63.87;100167.34;7385413;19;1846;-40
2023/07/20 04:15:19;;;;;;;;;;;;;;;24.83;62.88;100149.25;7388437;19;1615;-40
2023/07/20 04:17:47;;;;;;;;;;;;;;;24.95;62.56;100152.31;7388367;19;1485;-40
2023/07/20 04:20:17;;;;;;;;;;;;;;;24.76;63.14;100153.72;7386149;19;1587;-40
2023/07/20 04:22:46;;;;;;;;;;;;;;;24.80;63.21;100158.56;7393549;19;1378;-40
2023/07/20 04:25:17;;;;;;;;;;;;;;;24.97;62.58;100145.66;7394668;19;1471;-40
2023/07/20 04:27:45;;;;;;;;;;;;;;;25.00;62.75;100155.25;7393078;19;1433;-40
2023/07/20 04:30:15;;;;;;;;;;;;;;;25.00;62.40;100155.25;7394142;19;1427;-40
2023/07/20 04:32:46;;;;;;;;;;;;;;;24.93;62.37;100135.41;7393984;19;1849;-40
2023/07/20 04:35:20;;;;;;;;;;;;;;;24.69;63.06;100147.38;7394383;19;1566;-40
2023/07/20 04:37:48;;;;;;;;;;;;;;;24.88;62.69;100152.22;7391449;19;1395;-40
2023/07/20 04:40:20;;;;;;;;;;;;;;;24.86;62.66;100151.56;7395264;19;1390;-40
2023/07/20 04:42:48;;;;;;;;;;;;;;;24.97;62.31;100164.59;7392678;19;1495;-40
2023/07/20 04:45:18;;;;;;;;;;;;;;;24.89;62.57;100164.72;7392044;19;1323;-39
2023/07/20 04:47:47;;;;;;;;;;;;;;;25.00;62.69;100193.13;7398148;19;1531;-40
2023/07/20 04:50:15;;;;;;;;;;;;;;;24.95;62.95;100169.38;7392733;19;1508;-40
2023/07/20 04:52:46;;;;;;;;;;;;;;;25.04;62.70;100185.47;7397670;19;1870;-40
2023/07/20 04:55:14;;;;;;;;;;;;;;;25.15;62.63;100188.53;7397823;19;1498;-40
2023/07/20 04:57:45;;;;;;;;;;;;;;;25.23;62.27;100193.03;7395252;19;1245;-40
2023/07/20 05:00:14;;;;;;;;;;;;;;;25.24;61.93;100194.69;7395164;19;1204;-40
2023/07/20 05:02:42;;;;;;;;;;;;;;;25.28;62.03;100217.63;7395684;19;1033;-40
2023/07/20 05:05:10;;;;;;;;;;;;;;;25.30;61.70;100210.16;7394290;19;1631;-40
2023/07/20 05:07:39;;;;;;;;;;;;;;;25.37;61.54;100208.38;7395545;19;1549;-40
2023/07/20 05:10:08;;;;;;;;;;;;;;;25.43;61.58;100206.78;7397342;19;1206;-40
2023/07/20 05:12:36;;;;;;;;;;;;;;;25.56;60.99;100208.78;7398735;19;1861;-40
2023/07/20 05:15:07;;;;;;;;;;;;;;;25.58;61.14;100206.72;7398981;19;1965;-40
2023/07/20 05:17:36;;;;;;;;;;;;;;;25.48;61.75;100195.38;7400493;19;1953;-40
2023/07/20 05:20:04;;;;;;;;;;;;;;;25.36;61.84;100204.00;7397606;19;1870;-40
2023/07/20 05:22:33;;;;;;;;;;;;;;;25.49;61.77;100197.06;7400861;19;1862;-40
2023/07/20 05:25:01;;;;;;;;;;;;;;;25.44;61.65;100213.03;7400786;19;1809;-40
2023/07/20 05:27:30;;;;;;;;;;;;;;;25.45;61.84;100218.25;7400561;19;1406;-40
2023/07/20 05:29:58;;;;;;;;;;;;;;;25.42;61.99;100224.03;7401604;19;1204;-40
2023/07/20 05:32:29;;;;;;;;;;;;;;;25.49;61.98;100229.56;7398622;19;1867;-40
2023/07/20 05:34:57;;;;;;;;;;;;;;;25.56;61.60;100197.94;7397142;19;1850;-40
2023/07/20 05:37:26;;;;;;;;;;;;;;;25.58;61.51;100225.66;7401568;19;1034;-40
2023/07/20 05:39:54;;;;;;;;;;;;;;;25.56;61.36;100222.31;7398334;19;1838;-40
2023/07/20 05:42:22;;;;;;;;;;;;;;;25.53;61.58;100209.19;7397562;19;1761;-40
2023/07/20 05:44:52;;;;;;;;;;;;;;;25.53;61.66;100210.00;7399163;19;1691;-40
2023/07/20 05:47:21;;;;;;;;;;;;;;;25.53;61.73;100204.59;7400682;19;1839;-40
2023/07/20 05:49:52;;;;;;;;;;;;;;;25.53;61.84;100192.94;7400507;19;1719;-40
2023/07/20 05:52:20;;;;;;;;;;;;;;;25.50;61.89;100193.31;7399440;19;1857;-40
2023/07/20 05:54:48;;;;;;;;;;;;;;;25.52;61.74;100185.84;7400448;19;1751;-40
2023/07/20 05:57:16;;;;;;;;;;;;;;;25.55;61.97;100166.50;7398786;19;1332;-40
2023/07/20 05:59:45;;;;;;;;;;;;;;;25.61;61.49;100163.03;7400916;19;1878;-40
2023/07/20 06:02:14;;;;;;;;;;;;;;;25.55;61.52;100164.63;7397600;19;1520;-40
2023/07/20 06:04:42;;;;;;;;;;;;;;;25.56;61.71;100174.41;7400114;19;1767;-40
2023/07/20 06:07:13;;;;;;;;;;;;;;;25.53;61.91;100182.09;7400521;19;1034;-40
2023/07/20 06:09:42;;;;;;;;;;;;;;;25.52;61.75;100194.78;7400843;19;1017;-40
2023/07/20 06:12:11;;;;;;;;;;;;;;;25.56;61.57;100177.13;7400359;19;1807;-40
2023/07/20 06:14:40;;;;;;;;;;;;;;;25.53;61.72;100188.34;7399387;19;1913;-40
2023/07/20 06:17:08;;;;;;;;;;;;;;;25.55;61.82;100199.00;7398959;19;1618;-40
2023/07/20 06:19:36;;;;;;;;;;;;;;;25.69;61.35;100186.44;7396386;19;1460;-40
2023/07/20 06:22:05;;;;;;;;;;;;;;;25.71;61.55;100185.19;7399440;19;1743;-40
2023/07/20 06:24:36;;;;;;;;;;;;;;;25.86;60.93;100197.81;7397772;19;1925;-40
2023/07/20 06:27:05;;;;;;;;;;;;;;;25.84;61.09;100189.06;7399110;19;958;-40
2023/07/20 06:29:34;;;;;;;;;;;;;;;25.94;60.76;100204.00;7398955;19;1973;-40
2023/07/20 06:32:02;;;;;;;;;;;;;;;25.91;60.90;100200.81;7396530;19;1993;-40
2023/07/20 06:34:30;;;;;;;;;;;;;;;25.80;61.40;100211.13;7398085;19;1841;-40
2023/07/20 06:36:58;;;;;;;;;;;;;;;25.72;61.51;100200.41;7398417;19;1606;-40
2023/07/20 06:39:27;;;;;;;;;;;;;;;25.77;61.47;100202.53;7398577;19;1810;-40
2023/07/20 06:41:58;;;;;;;;;;;;;;;25.83;61.17;100209.06;7398580;19;1763;-40
2023/07/20 06:44:26;;;;;;;;;;;;;;;25.73;61.51;100210.22;7399673;19;978;-40
2023/07/20 06:46:54;;;;;;;;;;;;;;;25.70;61.61;100221.41;7398187;19;1869;-40
2023/07/20 06:49:29;;;;;;;;;;;;;;;25.77;61.65;100216.91;7397955;19;1826;-40
2023/07/20 06:51:58;;;;;;;;;;;;;;;25.74;61.57;100203.75;7398202;19;1604;-40
2023/07/20 06:54:26;;;;;;;;;;;;;;;25.74;61.55;100222.69;7396982;19;1855;-40
2023/07/20 06:56:54;;;;;;;;;;;;;;;25.79;61.58;100224.84;7398383;19;1397;-40
2023/07/20 06:59:26;;;;;;;;;;;;;;;25.78;61.33;100223.16;7397393;19;1699;-40
2023/07/20 07:01:54;;;;;;;;;;;;;;;25.85;61.23;100239.50;7397975;19;1545;-40
2023/07/20 07:04:22;;;;;;;;;;;;;;;25.90;61.30;100223.47;7398390;19;1015;-40
2023/07/20 07:06:50;;;;;;;;;;;;;;;25.85;61.07;100213.25;7398047;19;1516;-40
2023/07/20 07:09:19;;;;;;;;;;;;;;;25.91;61.28;100217.06;7397339;19;1583;-40
2023/07/20 07:11:47;;;;;;;;;;;;;;;26.04;60.64;100225.31;7397431;19;1394;-40
2023/07/20 07:14:19;;;;;;;;;;;;;;;26.13;60.74;100234.16;7396438;19;1855;-40
2023/07/20 07:16:50;;;;;;;;;;;;;;;26.09;60.91;100246.41;7398044;19;1840;-40
2023/07/20 07:19:19;;;;;;;;;;;;;;;26.08;60.74;100242.84;7395544;19;1448;-40
2023/07/20 07:21:47;;;;;;;;;;;;;;;26.10;60.94;100259.78;7396247;19;1811;-40
2023/07/20 07:24:15;;;;;;;;;;;;;;;26.00;60.91;100245.69;7393491;19;1627;-40
2023/07/20 07:26:44;;;;;;;;;;;;;;;25.17;62.32;100242.47;7395085;19;1663;-40
2023/07/20 07:29:12;;;;;;;;;;;;;;;24.78;61.69;100249.84;7396303;19;1604;-40
2023/07/20 07:31:41;;;;;;;;;;;;;;;24.61;61.90;100253.75;7394075;19;1576;-40
2023/07/20 07:34:11;;;;;;;;;;;;;;;24.41;62.04;100248.00;7393681;19;1863;-40
2023/07/20 07:36:40;;;;;;;;;;;;;;;24.34;62.06;100237.09;7395811;19;1541;-40
2023/07/20 07:39:09;;;;;;;;;;;;;;;24.31;62.10;100247.44;7395270;19;1288;-39
2023/07/20 07:41:37;;;;;;;;;;;;;;;24.25;62.29;100240.06;7395846;19;1549;-39
2023/07/20 07:44:06;;;;;;;;;;;;;;;24.28;62.15;100248.66;7395779;19;1477;-40
2023/07/20 07:46:34;;;;;;;;;;;;;;;24.28;61.92;100237.00;7397232;19;1366;-40
2023/07/20 07:49:02;;;;;;;;;;;;;;;24.24;61.73;100241.09;7396797;19;1034;-40
2023/07/20 07:51:33;;;;;;;;;;;;;;;24.25;61.73;100250.88;7392563;19;1980;-40
2023/07/20 07:54:01;;;;;;;;;;;;;;;24.30;61.70;100251.16;7392529;19;1864;-40
2023/07/20 07:56:30;;;;;;;;;;;;;;;24.51;60.72;100254.03;7398438;19;1355;-40
2023/07/20 07:58:58;;;;;;;;;;;;;;;24.33;61.21;100253.50;7401930;19;1643;-40
2023/07/20 08:01:26;;;;;;;;;;;;;;;24.41;61.09;100256.13;7402195;19;1546;-40
2023/07/20 08:03:55;;;;;;;;;;;;;;;24.37;60.63;100254.81;7402686;19;1219;-39
2023/07/20 08:06:23;;;;;;;;;;;;;;;24.14;61.22;100258.41;7401857;19;1431;-40
2023/07/20 08:08:54;;;;;;;;;;;;;;;24.10;61.79;100265.19;7400542;19;1285;-40
2023/07/20 08:11:22;;;;;;;;;;;;;;;24.43;60.56;100256.78;7398364;19;1229;-39
2023/07/20 08:13:51;;;;;;;;;;;;;;;24.20;61.42;100263.06;7400067;19;1860;-39
2023/07/20 08:16:19;;;;;;;;;;;;;;;24.19;60.96;100247.88;7402161;19;1569;-40
2023/07/20 08:18:48;;;;;;;;;;;;;;;24.28;60.55;100245.94;7401579;19;1608;-40
2023/07/20 08:21:16;;;;;;;;;;;;;;;24.04;61.75;100251.56;7402487;19;1281;-40
2023/07/20 08:23:44;;;;;;;;;;;;;;;24.17;61.05;100232.88;7403174;19;1620;-39
2023/07/20 08:26:15;;;;;;;;;;;;;;;24.18;60.78;100230.00;7402231;19;1185;-40
2023/07/20 08:28:45;;;;;;;;;;;;;;;23.98;61.53;100234.22;7402396;19;1493;-39
2023/07/20 08:31:13;;;;;;;;;;;;;;;24.16;60.82;100229.34;7398754;19;1142;-40
2023/07/20 08:33:41;;;;;;;;;;;;;;;24.10;60.83;100229.22;7395127;19;1933;-40
2023/07/20 08:36:10;;;;;;;;;;;;;;;23.97;61.40;100229.81;7396669;19;1635;-39
2023/07/20 08:38:38;;;;;;;;;;;;;;;24.12;60.94;100238.81;7395136;19;1402;-40
2023/07/20 08:41:06;;;;;;;;;;;;;;;24.06;61.15;100223.34;7396904;19;1340;-40
2023/07/20 08:43:38;;;;;;;;;;;;;;;23.93;61.41;100221.25;7396547;19;1525;-40
2023/07/20 08:46:07;;;;;;;;;;;;;;;24.09;60.76;100209.47;7395960;19;1615;-40
2023/07/20 08:48:35;;;;;;;;;;;;;;;24.02;61.08;100212.06;7400807;19;1272;-39
2023/07/20 08:51:04;;;;;;;;;;;;;;;24.03;61.11;100221.00;7399887;19;1635;-39
2023/07/20 08:53:34;;;;;;;;;;;;;;;24.09;60.66;100244.56;7398541;19;1868;-40
2023/07/20 08:56:03;;;;;;;;;;;;;;;24.05;60.60;100228.94;7401002;19;1533;-39
2023/07/20 08:58:33;;;;;;;;;;;;;;;24.01;61.05;100231.16;7401337;19;1736;-39
2023/07/20 09:01:04;;;;;;;;;;;;;;;23.95;60.70;100215.66;7401815;19;1853;-39
2023/07/20 09:03:33;;;;;;;;;;;;;;;23.88;60.47;100215.56;7401733;19;1137;-39
2023/07/20 09:06:01;;;;;;;;;;;;;;;23.89;60.38;100200.19;7399750;19;1521;-39
2023/07/20 09:08:29;;;;;;;;;;;;;;;23.95;60.00;100204.88;7397885;19;1802;-40
2023/07/20 09:10:58;;;;;;;;;;;;;;;23.86;59.88;100212.22;7400168;19;1730;-40
2023/07/20 09:13:27;;;;;;;;;;;;;;;23.91;59.57;100214.34;7399395;19;1858;-40
2023/07/20 09:15:56;;;;;;;;;;;;;;;23.99;59.46;100216.97;7401452;19;1817;-40
2023/07/20 09:18:30;;;;;;;;;;;;;;;23.92;59.28;100207.94;7401325;19;1805;-39
2023/07/20 09:21:04;;;;;;;;;;;;;;;23.92;59.25;100216.06;7397727;19;1845;-40
2023/07/20 09:23:33;;;;;;;;;;;;;;;23.85;59.56;100215.91;7400392;19;1834;-39
2023/07/20 09:26:02;;;;;;;;;;;;;;;23.80;59.37;100227.25;7401870;19;1079;-39
2023/07/20 09:28:31;;;;;;;;;;;;;;;23.78;59.24;100220.38;7398695;19;1992;-39
2023/07/20 09:30:59;;;;;;;;;;;;;;;23.76;59.34;100231.31;7400190;19;1003;-39
2023/07/20 09:33:30;;;;;;;;;;;;;;;23.78;59.25;100231.19;7399994;19;1861;-39
2023/07/20 09:36:04;;;;;;;;;;;;;;;23.69;59.49;100219.53;7398379;19;1897;-40
2023/07/20 09:38:33;;;;;;;;;;;;;;;23.67;59.47;100196.47;7399626;19;1739;-40
2023/07/20 09:41:01;;;;;;;;;;;;;;;23.71;59.21;100203.19;7401272;19;1043;-39
2023/07/20 09:43:31;;;;;;;;;;;;;;;23.74;59.25;100203.66;7400287;19;1862;-40
2023/07/20 09:46:00;;;;;;;;;;;;;;;23.71;59.36;100206.72;7399986;19;1941;-40
2023/07/20 09:48:32;;;;;;;;;;;;;;;23.72;59.17;100172.47;7401055;19;1747;-39
2023/07/20 09:51:00;;;;;;;;;;;;;;;23.69;59.06;100170.94;7399922;19;1794;-40
2023/07/20 09:53:29;;;;;;;;;;;;;;;23.79;58.88;100168.88;7398842;19;1856;-40
2023/07/20 09:55:58;;;;;;;;;;;;;;;23.91;58.68;100168.44;7398249;19;1718;-39
2023/07/20 09:58:28;;;;;;;;;;;;;;;23.77;59.01;100173.63;7399812;19;1708;-39
2023/07/20 10:00:59;;;;;;;;;;;;;;;23.71;59.19;100166.22;7400755;19;1031;-40
2023/07/20 10:03:31;;;;;;;;;;;;;;;23.78;58.86;100171.78;7398832;19;1846;-40
2023/07/20 10:06:03;;;;;;;;;;;;;;;23.84;58.97;100154.00;7398229;19;1846;-39
2023/07/20 10:08:32;;;;;;;;;;;;;;;23.77;58.95;100149.31;7398462;19;1468;-40
2023/07/20 10:11:02;;;;;;;;;;;;;;;23.79;58.79;100136.47;7394808;19;1743;-40
2023/07/20 10:13:32;;;;;;;;;;;;;;;23.85;58.60;100128.69;7395156;19;1458;-40
2023/07/20 10:16:04;;;;;;;;;;;;;;;23.81;59.03;100134.47;7394516;19;1479;-44
2023/07/20 10:18:40;;;;;;;;;;;;;;;23.74;59.87;100119.97;7396401;19;1481;-49
2023/07/20 10:21:09;;;;;;;;;;;;;;;23.92;61.57;100118.84;7397937;19;1577;-44
2023/07/20 10:23:38;;;;;;;;;;;;;;;23.77;62.93;100111.53;7398318;19;1207;-55
2023/07/20 10:26:08;;;;;;;;;;;;;;;23.98;63.16;100102.72;7399548;19;1206;-44
2023/07/20 10:28:36;;;;;;;;;;;;;;;23.95;63.98;100083.34;7394918;19;1630;-44
2023/07/20 10:31:05;;;;;;;;;;;;;;;24.07;64.38;100089.13;7397978;19;1240;-43
2023/07/20 10:33:36;;;;;;;;;;;;;;;24.18;64.87;100081.41;7395411;19;1878;-44
2023/07/20 10:36:06;;;;;;;;;;;;;;;24.24;65.27;100069.00;7394611;19;1859;-41
2023/07/20 10:38:43;;;;;;;;;;;;;;;24.28;65.32;100064.91;7386204;19;1378;-41
2023/07/20 10:41:24;;;;;;;;;;;;;;;24.19;66.33;100087.63;7385917;19;1395;-42
2023/07/20 10:43:53;;;;;;;;;;;;;;;24.26;66.22;100072.38;7389944;19;1235;-41
2023/07/20 10:46:36;;;;;;;;;;;;;;;24.27;66.41;100089.41;7391864;19;1752;-41
2023/07/20 10:49:09;;;;;;;;;;;;;;;24.37;65.94;100071.91;7391737;19;1707;-41
2023/07/20 10:51:41;;;;;;;;;;;;;;;24.21;65.17;100078.34;7392034;19;1545;-41
2023/07/20 10:54:11;;;;;;;;;;;;;;;23.93;64.86;100082.69;7389582;19;1845;-41
2023/07/20 10:56:39;;;;;;;;;;;;;;;23.98;65.30;100080.28;7389559;19;1266;-41
2023/07/20 10:59:20;;;;;;;;;;;;;;;24.04;65.86;100087.66;7390204;19;1838;-41
2023/07/20 11:01:49;;;;;;;;;;;;;;;24.01;66.43;100093.41;7389848;19;1585;-41
2023/07/20 11:04:21;;;;;;;;;;;;;;;24.14;66.40;100088.19;7391030;19;1405;-41
2023/07/20 11:06:57;;;;;;;;;;;;;;;24.19;66.00;100066.88;7390503;19;1465;-41
2023/07/20 11:09:26;;;;;;;;;;;;;;;24.15;66.26;100064.72;7391138;19;1815;-41
2023/07/20 11:12:11;;;;;;;;;;;;;;;24.18;66.43;100089.50;7390216;19;1406;-41
2023/07/20 11:14:43;;;;;;;;;;;;;;;24.34;66.35;100071.44;7390127;19;1946;-41
2023/07/20 11:17:15;;;;;;;;;;;;;;;24.27;66.48;100062.38;7390009;19;1826;-41
2023/07/20 11:19:46;;;;;;;;;;;;;;;24.26;65.93;100091.28;7389080;19;1484;-41
2023/07/20 11:22:15;;;;;;;;;;;;;;;24.10;66.21;100078.78;7388493;19;1584;-41
2023/07/20 11:24:43;;;;;;;;;;;;;;;23.88;66.34;100093.22;7389506;19;1373;-41
2023/07/20 11:27:11;;;;;;;;;;;;;;;24.00;65.79;100094.44;7389737;19;975;-41
2023/07/20 11:29:40;;;;;;;;;;;;;;;24.06;65.09;100091.00;7389247;19;1878;-41
2023/07/20 11:32:08;;;;;;;;;;;;;;;23.89;65.36;100081.38;7384705;19;1598;-41
2023/07/20 11:34:37;;;;;;;;;;;;;;;23.92;64.64;100086.44;7396177;19;1870;-41
2023/07/20 11:37:09;;;;;;;;;;;;;;;23.91;64.47;100079.34;7396322;19;1850;-41
2023/07/20 11:39:37;;;;;;;;;;;;;;;23.94;66.55;100076.28;7392067;19;1394;-41
2023/07/20 11:42:06;;;;;;;;;;;;;;;23.95;66.96;100064.44;7393404;19;1437;-41
2023/07/20 11:44:35;;;;;;;;;;;;;;;24.10;66.99;100045.56;7391809;19;1555;-41
2023/07/20 11:47:04;;;;;;;;;;;;;;;24.26;67.00;100045.34;7392160;19;1735;-41
2023/07/20 11:49:33;;;;;;;;;;;;;;;24.17;66.51;100025.72;7389994;19;1736;-41
2023/07/20 11:52:01;;;;;;;;;;;;;;;24.17;67.04;100014.91;7396278;19;1460;-41
2023/07/20 11:54:32;;;;;;;;;;;;;;;24.30;66.48;100008.81;7396054;19;1866;-41
2023/07/20 11:57:03;;;;;;;;;;;;;;;24.27;66.67;100002.94;7392707;19;1922;-41
2023/07/20 11:59:32;;;;;;;;;;;;;;;24.28;66.78;100024.38;7396333;19;1862;-41
2023/07/20 12:02:01;;;;;;;;;;;;;;;24.27;66.67;100024.56;7389359;19;1493;-41
2023/07/20 12:04:29;;;;;;;;;;;;;;;24.34;65.86;100028.19;7391237;19;1115;-41
2023/07/20 12:06:57;;;;;;;;;;;;;;;24.17;66.37;100027.56;7391445;19;1941;-41
2023/07/20 12:09:26;;;;;;;;;;;;;;;24.27;66.41;100019.16;7390642;19;1937;-41
2023/07/20 12:11:57;;;;;;;;;;;;;;;24.07;65.31;100008.09;7390751;19;1560;-41
2023/07/20 12:14:28;;;;;;;;;;;;;;;24.01;64.88;100020.47;7390751;19;1857;-41
2023/07/20 12:16:56;;;;;;;;;;;;;;;23.99;65.96;100015.28;7394404;19;1684;-41
2023/07/20 12:19:27;;;;;;;;;;;;;;;24.12;66.09;100009.22;7393975;19;1712;-41
2023/07/20 12:22:00;;;;;;;;;;;;;;;24.10;66.50;100007.75;7394298;19;1381;-41
2023/07/20 12:24:28;;;;;;;;;;;;;;;24.07;66.65;99997.28;7394359;19;1436;-41
2023/07/20 12:27:01;;;;;;;;;;;;;;;24.11;66.69;100007.53;7395205;19;1040;-41
2023/07/20 12:29:31;;;;;;;;;;;;;;;24.27;66.16;100014.59;7395209;19;1973;-41
2023/07/20 12:31:59;;;;;;;;;;;;;;;24.29;66.33;100009.00;7392763;19;1819;-41
2023/07/20 12:34:28;;;;;;;;;;;;;;;24.15;66.75;100006.16;7396076;19;1865;-41
2023/07/20 12:36:56;;;;;;;;;;;;;;;24.26;66.23;99998.59;7394720;19;1807;-41
2023/07/20 12:39:25;;;;;;;;;;;;;;;24.39;65.98;99998.72;7394993;19;1386;-41
2023/07/20 12:41:53;;;;;;;;;;;;;;;24.27;65.66;100002.94;7396404;19;1593;-41
2023/07/20 12:44:24;;;;;;;;;;;;;;;24.28;65.45;99996.53;7402028;19;1785;-41
2023/07/20 12:46:53;;;;;;;;;;;;;;;24.39;65.21;100006.84;7403070;19;1373;-41
2023/07/20 12:49:21;;;;;;;;;;;;;;;24.11;64.57;99990.50;7402363;19;1727;-41
2023/07/20 12:51:49;;;;;;;;;;;;;;;24.02;64.78;99995.16;7403601;19;1034;-41
2023/07/20 12:54:18;;;;;;;;;;;;;;;24.04;65.61;99987.72;7402876;19;1948;-41
2023/07/20 12:56:46;;;;;;;;;;;;;;;23.97;66.52;99998.44;7399705;19;1892;-41
2023/07/20 12:59:14;;;;;;;;;;;;;;;24.07;66.56;99998.13;7402987;19;1747;-41